SWA223 KLAX-KLAS
Flight info
| Callsign | SWA223 |
|---|---|
| Flight time | N/A |
| Altitude | 27000 |
| Route | ORCKA5 MISEN RNDRZ4 |
| Aircraft | B738/M-SDE2E3FGHIRWXY/LB1 |
Departure
| Time | 2026-05-04 00:52 |
|---|---|
| Airport | Los Angeles International Airport (KLAX) |
Arrival
| Time | N/A |
|---|---|
| Airport | Harry Reid International Airport (KLAS) |
| Time | Latitude | Longitude | Altitude | Speed | Heading |
|---|---|---|---|---|---|
| 2026-05-04 00:29 | 33.94410 | -118.41444 | 121 ft | 0 kts | 263° |
| 2026-05-04 00:39 | 33.94410 | -118.41442 | 125 ft | 2 kts | 263° |
| 2026-05-04 00:39 | 33.94413 | -118.41412 | 122 ft | 4 kts | 265° |
| 2026-05-04 00:40 | 33.94415 | -118.41382 | 120 ft | 3 kts | 264° |
| 2026-05-04 00:40 | 33.94421 | -118.41355 | 124 ft | 4 kts | 216° |
| 2026-05-04 00:40 | 33.94444 | -118.41349 | 121 ft | 4 kts | 173° |
| 2026-05-04 00:40 | 33.94454 | -118.41350 | 123 ft | 0 kts | 173° |
| 2026-05-04 00:43 | 33.94446 | -118.41349 | 121 ft | 6 kts | 173° |
| 2026-05-04 00:44 | 33.94344 | -118.41334 | 121 ft | 20 kts | 173° |
| 2026-05-04 00:44 | 33.94208 | -118.41313 | 123 ft | 19 kts | 174° |
| 2026-05-04 00:44 | 33.94076 | -118.41293 | 124 ft | 19 kts | 174° |
| 2026-05-04 00:44 | 33.93949 | -118.41275 | 122 ft | 18 kts | 172° |
| 2026-05-04 00:45 | 33.93821 | -118.41256 | 123 ft | 19 kts | 174° |
| 2026-05-04 00:45 | 33.93743 | -118.41319 | 125 ft | 22 kts | 264° |
| 2026-05-04 00:45 | 33.93734 | -118.41416 | 124 ft | 16 kts | 263° |
| 2026-05-04 00:45 | 33.93775 | -118.41487 | 122 ft | 13 kts | 355° |
| 2026-05-04 00:46 | 33.93817 | -118.41411 | 125 ft | 13 kts | 85° |
| 2026-05-04 00:46 | 33.93821 | -118.41282 | 121 ft | 22 kts | 110° |
| 2026-05-04 00:46 | 33.93758 | -118.41212 | 125 ft | 12 kts | 104° |
| 2026-05-04 00:46 | 33.93765 | -118.41111 | 123 ft | 12 kts | 82° |
| 2026-05-04 00:47 | 33.93781 | -118.40957 | 125 ft | 24 kts | 83° |
| 2026-05-04 00:47 | 33.93801 | -118.40759 | 125 ft | 23 kts | 83° |
| 2026-05-04 00:47 | 33.93820 | -118.40571 | 125 ft | 22 kts | 83° |
| 2026-05-04 00:47 | 33.93839 | -118.40388 | 124 ft | 22 kts | 82° |
| 2026-05-04 00:48 | 33.93857 | -118.40210 | 123 ft | 21 kts | 82° |
| 2026-05-04 00:48 | 33.93873 | -118.40051 | 125 ft | 16 kts | 84° |
| 2026-05-04 00:48 | 33.93887 | -118.39918 | 125 ft | 16 kts | 83° |
| 2026-05-04 00:48 | 33.93902 | -118.39772 | 125 ft | 23 kts | 83° |
| 2026-05-04 00:49 | 33.93924 | -118.39547 | 125 ft | 28 kts | 83° |
| 2026-05-04 00:49 | 33.93947 | -118.39326 | 125 ft | 26 kts | 82° |
| 2026-05-04 00:49 | 33.93969 | -118.39116 | 123 ft | 24 kts | 83° |
| 2026-05-04 00:49 | 33.93989 | -118.38920 | 125 ft | 23 kts | 82° |
| 2026-05-04 00:50 | 33.94008 | -118.38732 | 124 ft | 22 kts | 83° |
| 2026-05-04 00:50 | 33.94027 | -118.38550 | 121 ft | 22 kts | 83° |
| 2026-05-04 00:50 | 33.94045 | -118.38372 | 123 ft | 22 kts | 83° |
| 2026-05-04 00:50 | 33.94064 | -118.38187 | 125 ft | 22 kts | 83° |
| 2026-05-04 00:51 | 33.94076 | -118.38070 | 125 ft | 10 kts | 83° |
| 2026-05-04 00:51 | 33.94046 | -118.38008 | 122 ft | 10 kts | 156° |
| 2026-05-04 00:51 | 33.93991 | -118.38003 | 121 ft | 4 kts | 242° |
| 2026-05-04 00:51 | 33.93977 | -118.38106 | 125 ft | 35 kts | 263° |
| 2026-05-04 00:52 | 33.93907 | -118.38770 | 122 ft | 122 kts | 263° |
| 2026-05-04 00:52 | 33.93771 | -118.40081 | 230 ft | 186 kts | 263° |
| 2026-05-04 00:52 | 33.93618 | -118.41674 | 1110 ft | 193 kts | 263° |
| 2026-05-04 00:52 | 33.93484 | -118.43307 | 2153 ft | 200 kts | 263° |
| 2026-05-04 00:53 | 33.93340 | -118.45027 | 2681 ft | 216 kts | 264° |
| 2026-05-04 00:53 | 33.93195 | -118.46936 | 3021 ft | 244 kts | 265° |
| 2026-05-04 00:53 | 33.93066 | -118.49051 | 3591 ft | 261 kts | 265° |
| 2026-05-04 00:53 | 33.92917 | -118.51242 | 4543 ft | 258 kts | 258° |
| 2026-05-04 00:54 | 33.92348 | -118.53318 | 5329 ft | 270 kts | 244° |
| 2026-05-04 00:54 | 33.91618 | -118.54605 | 5306 ft | 297 kts | 227° |
| 2026-05-04 00:54 | 33.89788 | -118.55937 | 5968 ft | 303 kts | 199° |
| 2026-05-04 00:54 | 33.87358 | -118.56157 | 8529 ft | 265 kts | 171° |
| 2026-05-04 00:55 | 33.85593 | -118.55241 | 9078 ft | 283 kts | 149° |
| 2026-05-04 00:55 | 33.84146 | -118.53628 | 9910 ft | 296 kts | 127° |
| 2026-05-04 00:55 | 33.83472 | -118.51190 | 10179 ft | 328 kts | 93° |
| 2026-05-04 00:55 | 33.83624 | -118.49338 | 10297 ft | 348 kts | 79° |
| 2026-05-04 00:56 | 33.84480 | -118.46502 | 10648 ft | 365 kts | 65° |
| 2026-05-04 00:56 | 33.85947 | -118.44070 | 11687 ft | 360 kts | 41° |
| 2026-05-04 00:56 | 33.88110 | -118.42581 | 12504 ft | 361 kts | 14° |
| 2026-05-04 00:56 | 33.90588 | -118.42184 | 13232 ft | 362 kts | 359° |
| 2026-05-04 00:57 | 33.93124 | -118.41914 | 13894 ft | 372 kts | 13° |
| 2026-05-04 00:57 | 33.95444 | -118.40481 | 14503 ft | 381 kts | 40° |
| 2026-05-04 00:57 | 33.97081 | -118.37973 | 15130 ft | 386 kts | 64° |
| 2026-05-04 00:57 | 33.98249 | -118.35032 | 15692 ft | 394 kts | 63° |
| 2026-05-04 00:58 | 33.99627 | -118.32126 | 16234 ft | 403 kts | 58° |
| 2026-05-04 00:58 | 34.01176 | -118.29276 | 16825 ft | 410 kts | 55° |
| 2026-05-04 00:58 | 34.02803 | -118.26423 | 17419 ft | 416 kts | 54° |
| 2026-05-04 00:58 | 34.04457 | -118.23545 | 18106 ft | 419 kts | 54° |
| 2026-05-04 00:59 | 34.06119 | -118.20644 | 18679 ft | 424 kts | 54° |
| 2026-05-04 00:59 | 34.07778 | -118.17728 | 19121 ft | 431 kts | 54° |
| 2026-05-04 00:59 | 34.09480 | -118.14721 | 19591 ft | 437 kts | 54° |
| 2026-05-04 00:59 | 34.11205 | -118.11670 | 20080 ft | 443 kts | 54° |
| 2026-05-04 01:00 | 34.12948 | -118.08589 | 20569 ft | 448 kts | 54° |
| 2026-05-04 01:00 | 34.14718 | -118.05459 | 21006 ft | 453 kts | 53° |
| 2026-05-04 01:00 | 34.16499 | -118.02302 | 21490 ft | 458 kts | 53° |
| 2026-05-04 01:00 | 34.18309 | -117.99110 | 21967 ft | 463 kts | 53° |
| 2026-05-04 01:01 | 34.20134 | -117.95879 | 22421 ft | 468 kts | 53° |
| 2026-05-04 01:01 | 34.21975 | -117.92607 | 22887 ft | 473 kts | 53° |
| 2026-05-04 01:01 | 34.23822 | -117.89296 | 23318 ft | 478 kts | 53° |
| 2026-05-04 01:01 | 34.25689 | -117.85949 | 23771 ft | 481 kts | 53° |
| 2026-05-04 01:02 | 34.27562 | -117.82612 | 24351 ft | 479 kts | 53° |
| 2026-05-04 01:02 | 34.29404 | -117.79325 | 24932 ft | 478 kts | 53° |
| 2026-05-04 01:02 | 34.31265 | -117.75996 | 25516 ft | 478 kts | 51° |